sensor_id;sensor_type;location;lat;lon;timestamp;temperature;humidity
27667;DHT22;15074;50.940;5.282;2024-02-26T00:01:40;6.90;99.90
27667;DHT22;15074;50.940;5.282;2024-02-26T00:04:06;6.80;99.90
27667;DHT22;15074;50.940;5.282;2024-02-26T00:06:31;6.80;99.90
27667;DHT22;15074;50.940;5.282;2024-02-26T00:08:58;6.80;99.90
27667;DHT22;15074;50.940;5.282;2024-02-26T00:11:23;6.80;99.90
27667;DHT22;15074;50.940;5.282;2024-02-26T00:13:49;6.80;99.90
27667;DHT22;15074;50.940;5.282;2024-02-26T00:16:15;6.80;99.90
27667;DHT22;15074;50.940;5.282;2024-02-26T00:18:40;6.70;99.90
27667;DHT22;15074;50.940;5.282;2024-02-26T00:21:06;6.70;99.90
27667;DHT22;15074;50.940;5.282;2024-02-26T00:23:32;6.80;99.90
27667;DHT22;15074;50.940;5.282;2024-02-26T00:25:57;6.80;99.90
27667;DHT22;15074;50.940;5.282;2024-02-26T00:28:24;6.70;99.90
27667;DHT22;15074;50.940;5.282;2024-02-26T00:30:50;6.70;99.90
27667;DHT22;15074;50.940;5.282;2024-02-26T00:33:21;6.70;99.90
27667;DHT22;15074;50.940;5.282;2024-02-26T00:35:47;6.60;99.90
27667;DHT22;15074;50.940;5.282;2024-02-26T00:38:13;6.70;99.90
27667;DHT22;15074;50.940;5.282;2024-02-26T00:40:39;6.70;99.90
27667;DHT22;15074;50.940;5.282;2024-02-26T00:43:06;6.70;99.90
27667;DHT22;15074;50.940;5.282;2024-02-26T00:45:32;6.70;99.90
27667;DHT22;15074;50.940;5.282;2024-02-26T00:47:58;6.60;99.90
27667;DHT22;15074;50.940;5.282;2024-02-26T00:50:24;6.60;99.90
27667;DHT22;15074;50.940;5.282;2024-02-26T00:52:51;6.60;99.90
27667;DHT22;15074;50.940;5.282;2024-02-26T00:55:16;6.70;99.90
27667;DHT22;15074;50.940;5.282;2024-02-26T00:57:44;6.70;99.90
27667;DHT22;15074;50.940;5.282;2024-02-26T01:00:10;6.70;99.90
27667;DHT22;15074;50.940;5.282;2024-02-26T01:02:39;6.70;99.90
27667;DHT22;15074;50.940;5.282;2024-02-26T01:05:22;6.60;99.90
27667;DHT22;15074;50.940;5.282;2024-02-26T01:08:11;6.60;99.90
27667;DHT22;15074;50.940;5.282;2024-02-26T01:10:38;6.50;99.90
27667;DHT22;15074;50.940;5.282;2024-02-26T01:13:10;6.50;99.90
27667;DHT22;15074;50.940;5.282;2024-02-26T01:15:37;6.50;99.90
27667;DHT22;15074;50.940;5.282;2024-02-26T01:18:03;6.60;99.90
27667;DHT22;15074;50.940;5.282;2024-02-26T01:20:36;6.60;99.90
27667;DHT22;15074;50.940;5.282;2024-02-26T01:23:12;6.60;99.90
27667;DHT22;15074;50.940;5.282;2024-02-26T01:25:38;6.60;99.90
27667;DHT22;15074;50.940;5.282;2024-02-26T01:28:07;6.60;99.90
27667;DHT22;15074;50.940;5.282;2024-02-26T01:30:48;6.70;99.90
27667;DHT22;15074;50.940;5.282;2024-02-26T01:33:15;6.60;99.90
27667;DHT22;15074;50.940;5.282;2024-02-26T01:36:03;6.50;99.90
27667;DHT22;15074;50.940;5.282;2024-02-26T01:38:49;6.40;99.90
27667;DHT22;15074;50.940;5.282;2024-02-26T01:41:15;6.40;99.90
27667;DHT22;15074;50.940;5.282;2024-02-26T01:43:48;6.50;99.90
27667;DHT22;15074;50.940;5.282;2024-02-26T01:46:25;6.50;99.90
27667;DHT22;15074;50.940;5.282;2024-02-26T01:48:56;6.50;99.90
27667;DHT22;15074;50.940;5.282;2024-02-26T01:51:24;6.50;99.90
27667;DHT22;15074;50.940;5.282;2024-02-26T01:53:50;6.40;99.90
27667;DHT22;15074;50.940;5.282;2024-02-26T01:56:19;6.40;99.90
27667;DHT22;15074;50.940;5.282;2024-02-26T01:58:45;6.40;99.90
27667;DHT22;15074;50.940;5.282;2024-02-26T02:01:11;6.40;99.90
27667;DHT22;15074;50.940;5.282;2024-02-26T02:03:37;6.40;99.90
27667;DHT22;15074;50.940;5.282;2024-02-26T02:06:04;6.40;99.90
27667;DHT22;15074;50.940;5.282;2024-02-26T02:08:29;6.30;99.90
27667;DHT22;15074;50.940;5.282;2024-02-26T02:10:55;6.40;99.90
27667;DHT22;15074;50.940;5.282;2024-02-26T02:13:21;6.40;99.90
27667;DHT22;15074;50.940;5.282;2024-02-26T02:15:47;6.40;99.90
27667;DHT22;15074;50.940;5.282;2024-02-26T02:18:13;6.40;99.90
27667;DHT22;15074;50.940;5.282;2024-02-26T02:20:38;6.40;99.90
27667;DHT22;15074;50.940;5.282;2024-02-26T02:23:04;6.40;99.90
27667;DHT22;15074;50.940;5.282;2024-02-26T02:25:30;6.50;99.90
27667;DHT22;15074;50.940;5.282;2024-02-26T02:27:56;6.50;99.90
27667;DHT22;15074;50.940;5.282;2024-02-26T02:30:28;6.50;99.90
27667;DHT22;15074;50.940;5.282;2024-02-26T02:32:55;6.50;99.90
27667;DHT22;15074;50.940;5.282;2024-02-26T02:35:22;6.50;99.90
27667;DHT22;15074;50.940;5.282;2024-02-26T02:37:49;6.50;99.90
27667;DHT22;15074;50.940;5.282;2024-02-26T02:40:15;6.50;99.90
27667;DHT22;15074;50.940;5.282;2024-02-26T02:42:41;6.40;99.90
27667;DHT22;15074;50.940;5.282;2024-02-26T02:45:07;6.50;99.90
27667;DHT22;15074;50.940;5.282;2024-02-26T02:47:36;6.40;99.90
27667;DHT22;15074;50.940;5.282;2024-02-26T02:50:03;6.50;99.90
27667;DHT22;15074;50.940;5.282;2024-02-26T02:52:29;6.40;99.90
27667;DHT22;15074;50.940;5.282;2024-02-26T02:54:54;6.40;99.90
27667;DHT22;15074;50.940;5.282;2024-02-26T02:57:20;6.40;99.90
27667;DHT22;15074;50.940;5.282;2024-02-26T02:59:46;6.40;99.90
27667;DHT22;15074;50.940;5.282;2024-02-26T03:02:12;6.40;99.90
27667;DHT22;15074;50.940;5.282;2024-02-26T03:04:37;6.40;99.90
27667;DHT22;15074;50.940;5.282;2024-02-26T03:07:03;6.40;99.90
27667;DHT22;15074;50.940;5.282;2024-02-26T03:09:29;6.40;99.90
27667;DHT22;15074;50.940;5.282;2024-02-26T03:11:54;6.40;99.90
27667;DHT22;15074;50.940;5.282;2024-02-26T03:14:20;6.40;99.90
27667;DHT22;15074;50.940;5.282;2024-02-26T03:16:46;6.40;99.90
27667;DHT22;15074;50.940;5.282;2024-02-26T03:19:14;6.40;99.90
27667;DHT22;15074;50.940;5.282;2024-02-26T03:21:41;6.40;99.90
27667;DHT22;15074;50.940;5.282;2024-02-26T03:24:06;6.30;99.90
27667;DHT22;15074;50.940;5.282;2024-02-26T03:26:34;6.20;99.90
27667;DHT22;15074;50.940;5.282;2024-02-26T03:29:00;6.20;99.90
27667;DHT22;15074;50.940;5.282;2024-02-26T03:31:27;6.30;99.90
27667;DHT22;15074;50.940;5.282;2024-02-26T03:33:52;6.30;99.90
27667;DHT22;15074;50.940;5.282;2024-02-26T03:36:18;6.40;99.90
27667;DHT22;15074;50.940;5.282;2024-02-26T03:38:43;6.30;99.90
27667;DHT22;15074;50.940;5.282;2024-02-26T03:41:09;6.40;99.90
27667;DHT22;15074;50.940;5.282;2024-02-26T03:43:35;6.40;99.90
27667;DHT22;15074;50.940;5.282;2024-02-26T03:46:00;6.30;99.90
27667;DHT22;15074;50.940;5.282;2024-02-26T03:48:26;6.30;99.90
27667;DHT22;15074;50.940;5.282;2024-02-26T03:50:52;6.40;99.90
27667;DHT22;15074;50.940;5.282;2024-02-26T03:53:17;6.40;99.90
27667;DHT22;15074;50.940;5.282;2024-02-26T03:55:43;6.30;99.90
27667;DHT22;15074;50.940;5.282;2024-02-26T03:58:09;6.30;99.90
27667;DHT22;15074;50.940;5.282;2024-02-26T04:00:34;6.40;99.90
27667;DHT22;15074;50.940;5.282;2024-02-26T04:03:00;6.40;99.90
27667;DHT22;15074;50.940;5.282;2024-02-26T04:05:26;6.30;99.90
27667;DHT22;15074;50.940;5.282;2024-02-26T04:07:51;6.40;99.90
27667;DHT22;15074;50.940;5.282;2024-02-26T04:10:17;6.40;99.90
27667;DHT22;15074;50.940;5.282;2024-02-26T04:12:42;6.40;99.90
27667;DHT22;15074;50.940;5.282;2024-02-26T04:15:09;6.40;99.90
27667;DHT22;15074;50.940;5.282;2024-02-26T04:17:36;6.40;99.90
27667;DHT22;15074;50.940;5.282;2024-02-26T04:20:03;6.40;99.90
27667;DHT22;15074;50.940;5.282;2024-02-26T04:22:29;6.40;99.90
27667;DHT22;15074;50.940;5.282;2024-02-26T04:24:54;6.40;99.90
27667;DHT22;15074;50.940;5.282;2024-02-26T04:27:20;6.40;99.90
27667;DHT22;15074;50.940;5.282;2024-02-26T04:29:45;6.40;99.90
27667;DHT22;15074;50.940;5.282;2024-02-26T04:32:11;6.50;99.90
27667;DHT22;15074;50.940;5.282;2024-02-26T04:34:37;6.30;99.90
27667;DHT22;15074;50.940;5.282;2024-02-26T04:37:03;6.30;99.90
27667;DHT22;15074;50.940;5.282;2024-02-26T04:39:28;6.30;99.90
27667;DHT22;15074;50.940;5.282;2024-02-26T04:41:54;6.20;99.90
27667;DHT22;15074;50.940;5.282;2024-02-26T04:44:20;6.30;99.90
27667;DHT22;15074;50.940;5.282;2024-02-26T04:46:45;6.30;99.90
27667;DHT22;15074;50.940;5.282;2024-02-26T04:49:11;6.30;99.90
27667;DHT22;15074;50.940;5.282;2024-02-26T04:51:37;6.30;99.90
27667;DHT22;15074;50.940;5.282;2024-02-26T04:54:03;6.40;99.90
27667;DHT22;15074;50.940;5.282;2024-02-26T04:56:28;6.40;99.90
27667;DHT22;15074;50.940;5.282;2024-02-26T04:58:54;6.40;99.90
27667;DHT22;15074;50.940;5.282;2024-02-26T05:01:19;6.40;99.90
27667;DHT22;15074;50.940;5.282;2024-02-26T05:03:45;6.40;99.90
27667;DHT22;15074;50.940;5.282;2024-02-26T05:06:11;6.40;99.90
27667;DHT22;15074;50.940;5.282;2024-02-26T05:08:36;6.40;99.90
27667;DHT22;15074;50.940;5.282;2024-02-26T05:11:04;6.30;99.90
27667;DHT22;15074;50.940;5.282;2024-02-26T05:13:30;6.30;99.90
27667;DHT22;15074;50.940;5.282;2024-02-26T05:15:56;6.40;99.90
27667;DHT22;15074;50.940;5.282;2024-02-26T05:18:28;6.40;99.90
27667;DHT22;15074;50.940;5.282;2024-02-26T05:20:57;6.30;99.90
27667;DHT22;15074;50.940;5.282;2024-02-26T05:23:23;6.30;99.90
27667;DHT22;15074;50.940;5.282;2024-02-26T05:25:50;6.30;99.90
27667;DHT22;15074;50.940;5.282;2024-02-26T05:28:15;6.30;99.90
27667;DHT22;15074;50.940;5.282;2024-02-26T05:30:42;6.30;99.90
27667;DHT22;15074;50.940;5.282;2024-02-26T05:33:14;6.20;99.90
27667;DHT22;15074;50.940;5.282;2024-02-26T05:35:41;6.20;99.90
27667;DHT22;15074;50.940;5.282;2024-02-26T05:38:07;6.20;99.90
27667;DHT22;15074;50.940;5.282;2024-02-26T05:40:33;6.30;99.90
27667;DHT22;15074;50.940;5.282;2024-02-26T05:43:01;6.30;99.90
27667;DHT22;15074;50.940;5.282;2024-02-26T05:45:26;6.30;99.90
27667;DHT22;15074;50.940;5.282;2024-02-26T05:47:52;6.20;99.90
27667;DHT22;15074;50.940;5.282;2024-02-26T05:50:18;6.30;99.90
27667;DHT22;15074;50.940;5.282;2024-02-26T05:52:45;6.30;99.90
27667;DHT22;15074;50.940;5.282;2024-02-26T05:55:12;6.30;99.90
27667;DHT22;15074;50.940;5.282;2024-02-26T05:57:39;6.30;99.90
27667;DHT22;15074;50.940;5.282;2024-02-26T06:00:05;6.20;99.90
27667;DHT22;15074;50.940;5.282;2024-02-26T06:02:33;6.30;99.90
27667;DHT22;15074;50.940;5.282;2024-02-26T06:04:59;6.20;99.90
27667;DHT22;15074;50.940;5.282;2024-02-26T06:07:26;6.30;99.90
27667;DHT22;15074;50.940;5.282;2024-02-26T06:09:53;6.30;99.90
27667;DHT22;15074;50.940;5.282;2024-02-26T06:12:19;6.30;99.90
27667;DHT22;15074;50.940;5.282;2024-02-26T06:14:45;6.30;99.90
27667;DHT22;15074;50.940;5.282;2024-02-26T06:17:12;6.20;99.90
27667;DHT22;15074;50.940;5.282;2024-02-26T06:19:44;6.10;99.90
27667;DHT22;15074;50.940;5.282;2024-02-26T06:22:10;6.20;99.90
27667;DHT22;15074;50.940;5.282;2024-02-26T06:24:36;6.20;99.90
27667;DHT22;15074;50.940;5.282;2024-02-26T06:27:03;6.10;99.90
27667;DHT22;15074;50.940;5.282;2024-02-26T06:29:29;6.20;99.90
27667;DHT22;15074;50.940;5.282;2024-02-26T06:31:55;6.20;99.90
27667;DHT22;15074;50.940;5.282;2024-02-26T06:34:21;6.10;99.90
27667;DHT22;15074;50.940;5.282;2024-02-26T06:36:48;6.20;99.90
27667;DHT22;15074;50.940;5.282;2024-02-26T06:39:13;6.30;99.90
27667;DHT22;15074;50.940;5.282;2024-02-26T06:41:42;6.20;99.90
27667;DHT22;15074;50.940;5.282;2024-02-26T06:44:08;6.30;99.90
27667;DHT22;15074;50.940;5.282;2024-02-26T06:46:33;6.20;99.90
27667;DHT22;15074;50.940;5.282;2024-02-26T06:48:59;6.10;99.90
27667;DHT22;15074;50.940;5.282;2024-02-26T06:51:25;6.10;99.90
27667;DHT22;15074;50.940;5.282;2024-02-26T06:53:50;6.10;99.90
27667;DHT22;15074;50.940;5.282;2024-02-26T06:56:16;6.10;99.90
27667;DHT22;15074;50.940;5.282;2024-02-26T06:58:42;6.20;99.90
27667;DHT22;15074;50.940;5.282;2024-02-26T07:01:08;6.10;99.90
27667;DHT22;15074;50.940;5.282;2024-02-26T07:03:34;6.10;99.90
27667;DHT22;15074;50.940;5.282;2024-02-26T07:06:00;6.10;99.90
27667;DHT22;15074;50.940;5.282;2024-02-26T07:08:25;6.20;99.90
27667;DHT22;15074;50.940;5.282;2024-02-26T07:10:51;6.10;99.90
27667;DHT22;15074;50.940;5.282;2024-02-26T07:13:17;6.10;99.90
27667;DHT22;15074;50.940;5.282;2024-02-26T07:15:42;6.20;99.90
27667;DHT22;15074;50.940;5.282;2024-02-26T07:18:08;6.20;99.90
27667;DHT22;15074;50.940;5.282;2024-02-26T07:20:35;6.20;99.90
27667;DHT22;15074;50.940;5.282;2024-02-26T07:23:01;6.10;99.90
27667;DHT22;15074;50.940;5.282;2024-02-26T07:25:27;6.10;99.90
27667;DHT22;15074;50.940;5.282;2024-02-26T07:27:52;6.10;99.90
27667;DHT22;15074;50.940;5.282;2024-02-26T07:30:18;6.10;99.90
27667;DHT22;15074;50.940;5.282;2024-02-26T07:32:44;6.10;99.90
27667;DHT22;15074;50.940;5.282;2024-02-26T07:35:10;6.20;99.90
27667;DHT22;15074;50.940;5.282;2024-02-26T07:37:36;6.10;99.90
27667;DHT22;15074;50.940;5.282;2024-02-26T07:40:01;6.10;99.90
27667;DHT22;15074;50.940;5.282;2024-02-26T07:42:27;6.10;99.90
27667;DHT22;15074;50.940;5.282;2024-02-26T07:44:53;6.10;99.90
27667;DHT22;15074;50.940;5.282;2024-02-26T07:47:19;6.20;99.90
27667;DHT22;15074;50.940;5.282;2024-02-26T07:49:45;6.20;99.90
27667;DHT22;15074;50.940;5.282;2024-02-26T07:52:11;6.20;99.90
27667;DHT22;15074;50.940;5.282;2024-02-26T07:54:36;6.20;99.90
27667;DHT22;15074;50.940;5.282;2024-02-26T07:57:02;6.10;99.90
27667;DHT22;15074;50.940;5.282;2024-02-26T07:59:31;6.20;99.90
27667;DHT22;15074;50.940;5.282;2024-02-26T08:01:57;6.10;99.90
27667;DHT22;15074;50.940;5.282;2024-02-26T08:04:22;6.30;99.90
27667;DHT22;15074;50.940;5.282;2024-02-26T08:06:48;6.20;99.90
27667;DHT22;15074;50.940;5.282;2024-02-26T08:09:14;6.20;99.90
27667;DHT22;15074;50.940;5.282;2024-02-26T08:11:39;6.30;99.90
27667;DHT22;15074;50.940;5.282;2024-02-26T08:14:05;6.30;99.90
27667;DHT22;15074;50.940;5.282;2024-02-26T08:16:31;6.20;99.90
27667;DHT22;15074;50.940;5.282;2024-02-26T08:18:56;6.20;99.90
27667;DHT22;15074;50.940;5.282;2024-02-26T08:21:22;6.20;99.90
27667;DHT22;15074;50.940;5.282;2024-02-26T08:23:47;6.10;99.90
27667;DHT22;15074;50.940;5.282;2024-02-26T08:26:13;6.10;99.90
27667;DHT22;15074;50.940;5.282;2024-02-26T08:28:39;6.20;99.90
27667;DHT22;15074;50.940;5.282;2024-02-26T08:31:05;6.20;99.90
27667;DHT22;15074;50.940;5.282;2024-02-26T08:33:31;6.20;99.90
27667;DHT22;15074;50.940;5.282;2024-02-26T08:35:56;6.20;99.90
27667;DHT22;15074;50.940;5.282;2024-02-26T08:38:22;6.30;99.90
27667;DHT22;15074;50.940;5.282;2024-02-26T08:40:49;6.30;99.90
27667;DHT22;15074;50.940;5.282;2024-02-26T08:43:14;6.30;99.90
27667;DHT22;15074;50.940;5.282;2024-02-26T08:45:40;6.20;99.90
27667;DHT22;15074;50.940;5.282;2024-02-26T08:48:06;6.10;99.90
27667;DHT22;15074;50.940;5.282;2024-02-26T08:50:32;6.10;99.90
27667;DHT22;15074;50.940;5.282;2024-02-26T08:52:58;6.10;99.90
27667;DHT22;15074;50.940;5.282;2024-02-26T08:55:26;6.10;99.90
27667;DHT22;15074;50.940;5.282;2024-02-26T08:57:52;6.20;99.90
27667;DHT22;15074;50.940;5.282;2024-02-26T09:00:17;6.20;99.90
27667;DHT22;15074;50.940;5.282;2024-02-26T09:02:46;6.30;99.90
27667;DHT22;15074;50.940;5.282;2024-02-26T09:05:12;6.30;99.90
27667;DHT22;15074;50.940;5.282;2024-02-26T09:07:38;6.30;99.90
27667;DHT22;15074;50.940;5.282;2024-02-26T09:10:05;6.30;99.90
27667;DHT22;15074;50.940;5.282;2024-02-26T09:12:31;6.30;99.90
27667;DHT22;15074;50.940;5.282;2024-02-26T09:14:57;6.20;99.90
27667;DHT22;15074;50.940;5.282;2024-02-26T09:17:23;6.30;99.90
27667;DHT22;15074;50.940;5.282;2024-02-26T09:19:48;6.30;99.90
27667;DHT22;15074;50.940;5.282;2024-02-26T09:22:14;6.20;99.90
27667;DHT22;15074;50.940;5.282;2024-02-26T09:24:40;6.20;99.90
27667;DHT22;15074;50.940;5.282;2024-02-26T09:27:06;6.20;99.90
27667;DHT22;15074;50.940;5.282;2024-02-26T09:29:31;6.30;99.90
27667;DHT22;15074;50.940;5.282;2024-02-26T09:31:58;6.20;99.90
27667;DHT22;15074;50.940;5.282;2024-02-26T09:34:24;6.20;99.90
27667;DHT22;15074;50.940;5.282;2024-02-26T09:36:49;6.30;99.90
27667;DHT22;15074;50.940;5.282;2024-02-26T09:39:15;6.30;99.90
27667;DHT22;15074;50.940;5.282;2024-02-26T09:41:45;6.30;99.90
27667;DHT22;15074;50.940;5.282;2024-02-26T09:44:15;6.40;99.90
27667;DHT22;15074;50.940;5.282;2024-02-26T09:46:48;6.40;99.90
27667;DHT22;15074;50.940;5.282;2024-02-26T09:49:16;6.40;99.90
27667;DHT22;15074;50.940;5.282;2024-02-26T09:51:42;6.50;99.90
27667;DHT22;15074;50.940;5.282;2024-02-26T09:54:09;6.50;99.90
27667;DHT22;15074;50.940;5.282;2024-02-26T09:56:38;6.50;99.90
27667;DHT22;15074;50.940;5.282;2024-02-26T09:59:06;6.50;99.90
27667;DHT22;15074;50.940;5.282;2024-02-26T10:01:37;6.50;99.90
27667;DHT22;15074;50.940;5.282;2024-02-26T10:04:04;6.60;99.90
27667;DHT22;15074;50.940;5.282;2024-02-26T10:06:30;6.60;99.90
27667;DHT22;15074;50.940;5.282;2024-02-26T10:08:56;6.60;99.90
27667;DHT22;15074;50.940;5.282;2024-02-26T10:11:24;6.60;99.90
27667;DHT22;15074;50.940;5.282;2024-02-26T10:13:50;6.50;99.90
27667;DHT22;15074;50.940;5.282;2024-02-26T10:16:16;6.50;99.90
27667;DHT22;15074;50.940;5.282;2024-02-26T10:18:49;6.50;99.90
27667;DHT22;15074;50.940;5.282;2024-02-26T10:21:19;6.60;99.90
27667;DHT22;15074;50.940;5.282;2024-02-26T10:23:45;6.70;99.90
27667;DHT22;15074;50.940;5.282;2024-02-26T10:26:13;6.70;99.90
27667;DHT22;15074;50.940;5.282;2024-02-26T10:28:42;6.70;99.90
27667;DHT22;15074;50.940;5.282;2024-02-26T10:31:09;6.60;99.90
27667;DHT22;15074;50.940;5.282;2024-02-26T10:33:38;6.60;99.90
27667;DHT22;15074;50.940;5.282;2024-02-26T10:36:05;6.70;99.90
27667;DHT22;15074;50.940;5.282;2024-02-26T10:38:32;6.70;99.90
27667;DHT22;15074;50.940;5.282;2024-02-26T10:40:58;6.70;99.90
27667;DHT22;15074;50.940;5.282;2024-02-26T10:43:25;6.70;99.90
27667;DHT22;15074;50.940;5.282;2024-02-26T10:45:50;6.80;99.90
27667;DHT22;15074;50.940;5.282;2024-02-26T10:48:17;6.90;99.90
27667;DHT22;15074;50.940;5.282;2024-02-26T10:50:43;6.90;99.90
27667;DHT22;15074;50.940;5.282;2024-02-26T10:53:17;6.90;99.90
27667;DHT22;15074;50.940;5.282;2024-02-26T10:56:04;6.70;99.90
27667;DHT22;15074;50.940;5.282;2024-02-26T10:58:31;6.90;99.90
27667;DHT22;15074;50.940;5.282;2024-02-26T11:00:57;6.70;99.90
27667;DHT22;15074;50.940;5.282;2024-02-26T11:03:25;6.70;99.90
27667;DHT22;15074;50.940;5.282;2024-02-26T11:05:50;6.60;99.90
27667;DHT22;15074;50.940;5.282;2024-02-26T11:08:20;6.60;99.90
27667;DHT22;15074;50.940;5.282;2024-02-26T11:10:53;6.70;99.90
27667;DHT22;15074;50.940;5.282;2024-02-26T11:13:19;6.70;99.90
27667;DHT22;15074;50.940;5.282;2024-02-26T11:15:48;6.70;99.90
27667;DHT22;15074;50.940;5.282;2024-02-26T11:18:19;6.60;99.90
27667;DHT22;15074;50.940;5.282;2024-02-26T11:20:45;6.60;99.90
27667;DHT22;15074;50.940;5.282;2024-02-26T11:23:11;6.50;99.90
27667;DHT22;15074;50.940;5.282;2024-02-26T11:25:37;6.40;99.90
27667;DHT22;15074;50.940;5.282;2024-02-26T11:28:11;6.50;99.90
27667;DHT22;15074;50.940;5.282;2024-02-26T11:30:42;6.50;99.90
27667;DHT22;15074;50.940;5.282;2024-02-26T11:33:09;6.40;99.90
27667;DHT22;15074;50.940;5.282;2024-02-26T11:35:38;6.40;99.90
27667;DHT22;15074;50.940;5.282;2024-02-26T11:38:04;6.40;99.90
27667;DHT22;15074;50.940;5.282;2024-02-26T11:40:33;6.40;99.90
27667;DHT22;15074;50.940;5.282;2024-02-26T11:42:59;6.50;99.90
27667;DHT22;15074;50.940;5.282;2024-02-26T11:48:16;6.50;99.90
27667;DHT22;15074;50.940;5.282;2024-02-26T11:50:47;6.50;99.90
27667;DHT22;15074;50.940;5.282;2024-02-26T11:53:30;6.50;99.90
27667;DHT22;15074;50.940;5.282;2024-02-26T11:58:45;6.40;99.90
27667;DHT22;15074;50.940;5.282;2024-02-26T12:01:46;6.50;99.90
27667;DHT22;15074;50.940;5.282;2024-02-26T12:04:22;6.60;99.90
27667;DHT22;15074;50.940;5.282;2024-02-26T12:07:11;6.60;99.90
27667;DHT22;15074;50.940;5.282;2024-02-26T12:09:39;6.70;99.90
27667;DHT22;15074;50.940;5.282;2024-02-26T12:14:51;6.70;99.90
27667;DHT22;15074;50.940;5.282;2024-02-26T12:17:24;6.70;99.90
27667;DHT22;15074;50.940;5.282;2024-02-26T12:19:51;6.80;99.90
27667;DHT22;15074;50.940;5.282;2024-02-26T12:22:18;6.80;99.90
27667;DHT22;15074;50.940;5.282;2024-02-26T12:24:58;6.80;99.90
27667;DHT22;15074;50.940;5.282;2024-02-26T12:27:24;6.80;99.90
27667;DHT22;15074;50.940;5.282;2024-02-26T12:29:50;6.80;99.90
27667;DHT22;15074;50.940;5.282;2024-02-26T12:32:16;6.80;99.90
27667;DHT22;15074;50.940;5.282;2024-02-26T12:34:41;6.90;99.90
27667;DHT22;15074;50.940;5.282;2024-02-26T12:37:07;7.10;99.90
27667;DHT22;15074;50.940;5.282;2024-02-26T12:39:34;7.10;99.90
27667;DHT22;15074;50.940;5.282;2024-02-26T12:42:00;7.10;99.90
27667;DHT22;15074;50.940;5.282;2024-02-26T12:44:26;7.00;99.90
27667;DHT22;15074;50.940;5.282;2024-02-26T12:47:03;6.80;99.90
27667;DHT22;15074;50.940;5.282;2024-02-26T12:49:29;6.70;99.90
27667;DHT22;15074;50.940;5.282;2024-02-26T12:51:55;6.90;99.90
27667;DHT22;15074;50.940;5.282;2024-02-26T12:54:28;6.90;99.90
27667;DHT22;15074;50.940;5.282;2024-02-26T12:56:54;6.90;99.90
27667;DHT22;15074;50.940;5.282;2024-02-26T12:59:20;6.90;99.90
27667;DHT22;15074;50.940;5.282;2024-02-26T13:01:46;7.00;99.90
27667;DHT22;15074;50.940;5.282;2024-02-26T13:04:12;7.10;99.90
27667;DHT22;15074;50.940;5.282;2024-02-26T13:06:38;7.10;99.90
27667;DHT22;15074;50.940;5.282;2024-02-26T13:09:03;7.20;99.90
27667;DHT22;15074;50.940;5.282;2024-02-26T13:11:29;7.10;99.90
27667;DHT22;15074;50.940;5.282;2024-02-26T13:13:56;7.00;99.90
27667;DHT22;15074;50.940;5.282;2024-02-26T13:16:24;6.90;99.90
27667;DHT22;15074;50.940;5.282;2024-02-26T13:18:51;6.90;99.90
27667;DHT22;15074;50.940;5.282;2024-02-26T13:21:18;6.80;99.90
27667;DHT22;15074;50.940;5.282;2024-02-26T13:23:48;6.80;99.90
27667;DHT22;15074;50.940;5.282;2024-02-26T13:26:15;6.80;99.90
27667;DHT22;15074;50.940;5.282;2024-02-26T13:28:41;6.90;99.90
27667;DHT22;15074;50.940;5.282;2024-02-26T13:31:08;6.80;99.90
27667;DHT22;15074;50.940;5.282;2024-02-26T13:33:34;6.90;99.90
27667;DHT22;15074;50.940;5.282;2024-02-26T13:36:00;6.90;99.90
27667;DHT22;15074;50.940;5.282;2024-02-26T13:38:27;6.80;99.90
27667;DHT22;15074;50.940;5.282;2024-02-26T13:40:53;6.90;99.90
27667;DHT22;15074;50.940;5.282;2024-02-26T13:43:19;6.90;99.90
27667;DHT22;15074;50.940;5.282;2024-02-26T13:45:45;7.00;99.90
27667;DHT22;15074;50.940;5.282;2024-02-26T13:48:12;7.00;99.90
27667;DHT22;15074;50.940;5.282;2024-02-26T13:50:42;7.00;99.90
27667;DHT22;15074;50.940;5.282;2024-02-26T13:53:11;7.10;99.90
27667;DHT22;15074;50.940;5.282;2024-02-26T13:55:37;7.10;99.90
27667;DHT22;15074;50.940;5.282;2024-02-26T13:58:03;7.10;99.90
27667;DHT22;15074;50.940;5.282;2024-02-26T14:00:29;7.00;99.90
27667;DHT22;15074;50.940;5.282;2024-02-26T14:02:59;7.10;99.90
27667;DHT22;15074;50.940;5.282;2024-02-26T14:05:25;7.10;99.90
27667;DHT22;15074;50.940;5.282;2024-02-26T14:07:50;7.20;99.90
27667;DHT22;15074;50.940;5.282;2024-02-26T14:10:16;7.20;99.90
27667;DHT22;15074;50.940;5.282;2024-02-26T14:12:42;7.30;99.90
27667;DHT22;15074;50.940;5.282;2024-02-26T14:15:08;7.30;99.90
27667;DHT22;15074;50.940;5.282;2024-02-26T14:17:34;7.30;99.90
27667;DHT22;15074;50.940;5.282;2024-02-26T14:20:00;7.30;99.90
27667;DHT22;15074;50.940;5.282;2024-02-26T14:22:25;7.30;99.90
27667;DHT22;15074;50.940;5.282;2024-02-26T14:24:52;7.30;99.90
27667;DHT22;15074;50.940;5.282;2024-02-26T14:27:18;7.20;99.90
27667;DHT22;15074;50.940;5.282;2024-02-26T14:29:46;7.20;99.90
27667;DHT22;15074;50.940;5.282;2024-02-26T14:32:12;7.10;99.90
27667;DHT22;15074;50.940;5.282;2024-02-26T14:34:38;7.20;99.90
27667;DHT22;15074;50.940;5.282;2024-02-26T14:37:04;7.20;99.90
27667;DHT22;15074;50.940;5.282;2024-02-26T14:39:33;7.10;99.90
27667;DHT22;15074;50.940;5.282;2024-02-26T14:41:59;7.10;99.90
27667;DHT22;15074;50.940;5.282;2024-02-26T14:44:26;7.00;99.90
27667;DHT22;15074;50.940;5.282;2024-02-26T14:46:51;7.10;99.90
27667;DHT22;15074;50.940;5.282;2024-02-26T14:49:17;7.00;99.90
27667;DHT22;15074;50.940;5.282;2024-02-26T14:51:43;7.00;99.90
27667;DHT22;15074;50.940;5.282;2024-02-26T14:54:13;7.00;99.90
27667;DHT22;15074;50.940;5.282;2024-02-26T14:56:38;7.00;99.90
27667;DHT22;15074;50.940;5.282;2024-02-26T14:59:04;7.10;99.90
27667;DHT22;15074;50.940;5.282;2024-02-26T15:01:30;7.10;99.90
27667;DHT22;15074;50.940;5.282;2024-02-26T15:03:56;7.20;99.90
27667;DHT22;15074;50.940;5.282;2024-02-26T15:06:22;7.10;99.90
27667;DHT22;15074;50.940;5.282;2024-02-26T15:08:48;7.20;99.90
27667;DHT22;15074;50.940;5.282;2024-02-26T15:11:14;7.20;99.90
27667;DHT22;15074;50.940;5.282;2024-02-26T15:13:40;7.30;99.90
27667;DHT22;15074;50.940;5.282;2024-02-26T15:16:06;7.30;99.90
27667;DHT22;15074;50.940;5.282;2024-02-26T15:18:31;7.30;99.90
27667;DHT22;15074;50.940;5.282;2024-02-26T15:20:57;7.30;99.90
27667;DHT22;15074;50.940;5.282;2024-02-26T15:23:23;7.30;99.90
27667;DHT22;15074;50.940;5.282;2024-02-26T15:25:49;7.30;99.90
27667;DHT22;15074;50.940;5.282;2024-02-26T15:28:15;7.30;99.90
27667;DHT22;15074;50.940;5.282;2024-02-26T15:30:41;7.40;99.90
27667;DHT22;15074;50.940;5.282;2024-02-26T15:33:07;7.40;99.90
27667;DHT22;15074;50.940;5.282;2024-02-26T15:35:33;7.40;99.90
27667;DHT22;15074;50.940;5.282;2024-02-26T15:37:59;7.40;99.90
27667;DHT22;15074;50.940;5.282;2024-02-26T15:40:25;7.30;99.90
27667;DHT22;15074;50.940;5.282;2024-02-26T15:42:50;7.20;99.90
27667;DHT22;15074;50.940;5.282;2024-02-26T15:45:16;7.10;99.90
27667;DHT22;15074;50.940;5.282;2024-02-26T15:47:42;7.20;99.90
27667;DHT22;15074;50.940;5.282;2024-02-26T15:50:08;7.10;99.90
27667;DHT22;15074;50.940;5.282;2024-02-26T15:52:36;7.00;99.90